sensor_id;sensor_type;location;lat;lon;timestamp;temperature;humidity
11764;DHT22;5939;56.522;14.950;2024-01-30T00:01:37;3.40;99.90
11764;DHT22;5939;56.522;14.950;2024-01-30T00:04:03;3.40;99.90
11764;DHT22;5939;56.522;14.950;2024-01-30T00:06:28;3.40;99.90
11764;DHT22;5939;56.522;14.950;2024-01-30T00:08:54;3.40;99.90
11764;DHT22;5939;56.522;14.950;2024-01-30T00:11:20;3.40;99.90
11764;DHT22;5939;56.522;14.950;2024-01-30T00:13:46;3.40;99.90
11764;DHT22;5939;56.522;14.950;2024-01-30T00:16:24;3.40;99.90
11764;DHT22;5939;56.522;14.950;2024-01-30T00:18:51;3.40;99.90
11764;DHT22;5939;56.522;14.950;2024-01-30T00:21:17;3.40;99.90
11764;DHT22;5939;56.522;14.950;2024-01-30T00:23:43;3.40;99.90
11764;DHT22;5939;56.522;14.950;2024-01-30T00:26:09;3.40;99.90
11764;DHT22;5939;56.522;14.950;2024-01-30T00:28:34;3.40;99.90
11764;DHT22;5939;56.522;14.950;2024-01-30T00:31:00;3.40;99.90
11764;DHT22;5939;56.522;14.950;2024-01-30T00:33:26;3.40;99.90
11764;DHT22;5939;56.522;14.950;2024-01-30T00:35:51;3.40;99.90
11764;DHT22;5939;56.522;14.950;2024-01-30T00:38:17;3.40;99.90
11764;DHT22;5939;56.522;14.950;2024-01-30T00:40:43;3.40;99.90
11764;DHT22;5939;56.522;14.950;2024-01-30T00:43:08;3.40;99.90
11764;DHT22;5939;56.522;14.950;2024-01-30T00:45:34;3.40;99.90
11764;DHT22;5939;56.522;14.950;2024-01-30T00:48:00;3.40;99.90
11764;DHT22;5939;56.522;14.950;2024-01-30T00:50:25;3.40;99.90
11764;DHT22;5939;56.522;14.950;2024-01-30T00:52:51;3.40;99.90
11764;DHT22;5939;56.522;14.950;2024-01-30T00:55:17;3.40;99.90
11764;DHT22;5939;56.522;14.950;2024-01-30T00:57:42;3.40;99.90
11764;DHT22;5939;56.522;14.950;2024-01-30T01:00:08;3.40;99.90
11764;DHT22;5939;56.522;14.950;2024-01-30T01:02:37;3.40;99.90
11764;DHT22;5939;56.522;14.950;2024-01-30T01:05:04;3.40;99.90
11764;DHT22;5939;56.522;14.950;2024-01-30T01:07:30;3.40;99.90
11764;DHT22;5939;56.522;14.950;2024-01-30T01:09:56;3.40;99.90
11764;DHT22;5939;56.522;14.950;2024-01-30T01:12:21;3.40;99.90
11764;DHT22;5939;56.522;14.950;2024-01-30T01:14:47;3.40;99.90
11764;DHT22;5939;56.522;14.950;2024-01-30T01:17:13;3.40;99.90
11764;DHT22;5939;56.522;14.950;2024-01-30T01:19:38;3.40;99.90
11764;DHT22;5939;56.522;14.950;2024-01-30T01:22:04;3.40;99.90
11764;DHT22;5939;56.522;14.950;2024-01-30T01:24:32;3.40;99.90
11764;DHT22;5939;56.522;14.950;2024-01-30T01:26:58;3.40;99.90
11764;DHT22;5939;56.522;14.950;2024-01-30T01:29:24;3.40;99.90
11764;DHT22;5939;56.522;14.950;2024-01-30T01:31:57;3.40;99.90
11764;DHT22;5939;56.522;14.950;2024-01-30T01:34:23;3.40;99.90
11764;DHT22;5939;56.522;14.950;2024-01-30T01:36:49;3.40;99.90
11764;DHT22;5939;56.522;14.950;2024-01-30T01:39:15;3.40;99.90
11764;DHT22;5939;56.522;14.950;2024-01-30T01:41:41;3.40;99.90
11764;DHT22;5939;56.522;14.950;2024-01-30T01:44:07;3.50;99.90
11764;DHT22;5939;56.522;14.950;2024-01-30T01:46:33;3.40;99.90
11764;DHT22;5939;56.522;14.950;2024-01-30T01:49:01;3.40;99.90
11764;DHT22;5939;56.522;14.950;2024-01-30T01:51:28;3.50;99.90
11764;DHT22;5939;56.522;14.950;2024-01-30T01:53:55;3.50;99.90
11764;DHT22;5939;56.522;14.950;2024-01-30T01:56:23;3.50;99.90
11764;DHT22;5939;56.522;14.950;2024-01-30T01:58:50;3.50;99.90
11764;DHT22;5939;56.522;14.950;2024-01-30T02:01:19;3.50;99.90
11764;DHT22;5939;56.522;14.950;2024-01-30T02:03:47;3.50;99.90
11764;DHT22;5939;56.522;14.950;2024-01-30T02:06:16;3.50;99.90
11764;DHT22;5939;56.522;14.950;2024-01-30T02:08:42;3.50;99.90
11764;DHT22;5939;56.522;14.950;2024-01-30T02:11:08;3.50;99.90
11764;DHT22;5939;56.522;14.950;2024-01-30T02:13:35;3.50;99.90
11764;DHT22;5939;56.522;14.950;2024-01-30T02:16:01;3.50;99.90
11764;DHT22;5939;56.522;14.950;2024-01-30T02:18:27;3.50;99.90
11764;DHT22;5939;56.522;14.950;2024-01-30T02:20:54;3.50;99.90
11764;DHT22;5939;56.522;14.950;2024-01-30T02:23:23;3.50;99.90
11764;DHT22;5939;56.522;14.950;2024-01-30T02:25:50;3.50;99.90
11764;DHT22;5939;56.522;14.950;2024-01-30T02:28:18;3.50;99.90
11764;DHT22;5939;56.522;14.950;2024-01-30T02:30:44;3.50;99.90
11764;DHT22;5939;56.522;14.950;2024-01-30T02:33:10;3.50;99.90
11764;DHT22;5939;56.522;14.950;2024-01-30T02:35:36;3.50;99.90
11764;DHT22;5939;56.522;14.950;2024-01-30T02:38:02;3.50;99.90
11764;DHT22;5939;56.522;14.950;2024-01-30T02:40:27;3.50;99.90
11764;DHT22;5939;56.522;14.950;2024-01-30T02:42:53;3.50;99.90
11764;DHT22;5939;56.522;14.950;2024-01-30T02:45:19;3.50;99.90
11764;DHT22;5939;56.522;14.950;2024-01-30T02:47:45;3.50;99.90
11764;DHT22;5939;56.522;14.950;2024-01-30T02:50:11;3.50;99.90
11764;DHT22;5939;56.522;14.950;2024-01-30T02:52:36;3.50;99.90
11764;DHT22;5939;56.522;14.950;2024-01-30T02:55:02;3.50;99.90
11764;DHT22;5939;56.522;14.950;2024-01-30T02:57:28;3.50;99.90
11764;DHT22;5939;56.522;14.950;2024-01-30T02:59:54;3.50;99.90
11764;DHT22;5939;56.522;14.950;2024-01-30T03:02:20;3.50;99.90
11764;DHT22;5939;56.522;14.950;2024-01-30T03:04:46;3.50;99.90
11764;DHT22;5939;56.522;14.950;2024-01-30T03:07:12;3.50;99.90
11764;DHT22;5939;56.522;14.950;2024-01-30T03:09:38;3.50;99.90
11764;DHT22;5939;56.522;14.950;2024-01-30T03:12:04;3.50;99.90
11764;DHT22;5939;56.522;14.950;2024-01-30T03:14:31;3.50;99.90
11764;DHT22;5939;56.522;14.950;2024-01-30T03:16:57;3.50;99.90
11764;DHT22;5939;56.522;14.950;2024-01-30T03:19:23;3.50;99.90
11764;DHT22;5939;56.522;14.950;2024-01-30T03:21:49;3.50;99.90
11764;DHT22;5939;56.522;14.950;2024-01-30T03:24:14;3.50;99.90
11764;DHT22;5939;56.522;14.950;2024-01-30T03:26:40;3.50;99.90
11764;DHT22;5939;56.522;14.950;2024-01-30T03:29:05;3.50;99.90
11764;DHT22;5939;56.522;14.950;2024-01-30T03:31:31;3.50;99.90
11764;DHT22;5939;56.522;14.950;2024-01-30T03:33:57;3.50;99.90
11764;DHT22;5939;56.522;14.950;2024-01-30T03:36:23;3.50;99.90
11764;DHT22;5939;56.522;14.950;2024-01-30T03:38:49;3.50;99.90
11764;DHT22;5939;56.522;14.950;2024-01-30T03:41:14;3.50;99.90
11764;DHT22;5939;56.522;14.950;2024-01-30T03:43:40;3.50;99.90
11764;DHT22;5939;56.522;14.950;2024-01-30T03:46:06;3.50;99.90
11764;DHT22;5939;56.522;14.950;2024-01-30T03:48:32;3.50;99.90
11764;DHT22;5939;56.522;14.950;2024-01-30T03:50:57;3.50;99.90
11764;DHT22;5939;56.522;14.950;2024-01-30T03:53:23;3.50;99.90
11764;DHT22;5939;56.522;14.950;2024-01-30T03:55:49;3.50;99.90
11764;DHT22;5939;56.522;14.950;2024-01-30T03:58:14;3.50;99.90
11764;DHT22;5939;56.522;14.950;2024-01-30T04:00:40;3.50;99.90
11764;DHT22;5939;56.522;14.950;2024-01-30T04:03:06;3.50;99.90
11764;DHT22;5939;56.522;14.950;2024-01-30T04:05:32;3.50;99.90
11764;DHT22;5939;56.522;14.950;2024-01-30T04:07:58;3.50;99.90
11764;DHT22;5939;56.522;14.950;2024-01-30T04:10:24;3.50;99.90
11764;DHT22;5939;56.522;14.950;2024-01-30T04:12:50;3.50;99.90
11764;DHT22;5939;56.522;14.950;2024-01-30T04:15:17;3.50;99.90
11764;DHT22;5939;56.522;14.950;2024-01-30T04:17:43;3.50;99.90
11764;DHT22;5939;56.522;14.950;2024-01-30T04:20:13;3.50;99.90
11764;DHT22;5939;56.522;14.950;2024-01-30T04:22:39;3.50;99.90
11764;DHT22;5939;56.522;14.950;2024-01-30T04:25:05;3.50;99.90
11764;DHT22;5939;56.522;14.950;2024-01-30T04:27:31;3.50;99.90
11764;DHT22;5939;56.522;14.950;2024-01-30T04:29:57;3.50;99.90
11764;DHT22;5939;56.522;14.950;2024-01-30T04:32:22;3.50;99.90
11764;DHT22;5939;56.522;14.950;2024-01-30T04:34:48;3.50;99.90
11764;DHT22;5939;56.522;14.950;2024-01-30T04:37:13;3.50;99.90
11764;DHT22;5939;56.522;14.950;2024-01-30T04:39:39;3.50;99.90
11764;DHT22;5939;56.522;14.950;2024-01-30T04:42:05;3.50;99.90
11764;DHT22;5939;56.522;14.950;2024-01-30T04:44:30;3.50;99.90
11764;DHT22;5939;56.522;14.950;2024-01-30T04:46:56;3.50;99.90
11764;DHT22;5939;56.522;14.950;2024-01-30T04:49:24;3.50;99.90
11764;DHT22;5939;56.522;14.950;2024-01-30T04:51:50;3.50;99.90
11764;DHT22;5939;56.522;14.950;2024-01-30T04:54:15;3.50;99.90
11764;DHT22;5939;56.522;14.950;2024-01-30T04:56:41;3.50;99.90
11764;DHT22;5939;56.522;14.950;2024-01-30T04:59:06;3.50;99.90
11764;DHT22;5939;56.522;14.950;2024-01-30T05:01:34;3.50;99.90
11764;DHT22;5939;56.522;14.950;2024-01-30T05:03:59;3.50;99.90
11764;DHT22;5939;56.522;14.950;2024-01-30T05:06:27;3.50;99.90
11764;DHT22;5939;56.522;14.950;2024-01-30T05:08:55;3.50;99.90
11764;DHT22;5939;56.522;14.950;2024-01-30T05:11:21;3.50;99.90
11764;DHT22;5939;56.522;14.950;2024-01-30T05:13:47;3.50;99.90
11764;DHT22;5939;56.522;14.950;2024-01-30T05:16:13;3.50;99.90
11764;DHT22;5939;56.522;14.950;2024-01-30T05:18:39;3.50;99.90
11764;DHT22;5939;56.522;14.950;2024-01-30T05:21:05;3.50;99.90
11764;DHT22;5939;56.522;14.950;2024-01-30T05:23:31;3.50;99.90
11764;DHT22;5939;56.522;14.950;2024-01-30T05:25:57;3.50;99.90
11764;DHT22;5939;56.522;14.950;2024-01-30T05:28:22;3.50;99.90
11764;DHT22;5939;56.522;14.950;2024-01-30T05:30:48;3.50;99.90
11764;DHT22;5939;56.522;14.950;2024-01-30T05:33:14;3.50;99.90
11764;DHT22;5939;56.522;14.950;2024-01-30T05:35:39;3.50;99.90
11764;DHT22;5939;56.522;14.950;2024-01-30T05:38:05;3.50;99.90
11764;DHT22;5939;56.522;14.950;2024-01-30T05:40:30;3.50;99.90
11764;DHT22;5939;56.522;14.950;2024-01-30T05:42:56;3.50;99.90
11764;DHT22;5939;56.522;14.950;2024-01-30T05:45:26;3.50;99.90
11764;DHT22;5939;56.522;14.950;2024-01-30T05:47:52;3.50;99.90
11764;DHT22;5939;56.522;14.950;2024-01-30T05:50:18;3.50;99.90
11764;DHT22;5939;56.522;14.950;2024-01-30T05:52:43;3.50;99.90
11764;DHT22;5939;56.522;14.950;2024-01-30T05:55:09;3.50;99.90
11764;DHT22;5939;56.522;14.950;2024-01-30T05:57:35;3.50;99.90
11764;DHT22;5939;56.522;14.950;2024-01-30T06:00:01;3.50;99.90
11764;DHT22;5939;56.522;14.950;2024-01-30T06:02:27;3.50;99.90
11764;DHT22;5939;56.522;14.950;2024-01-30T06:04:52;3.50;99.90
11764;DHT22;5939;56.522;14.950;2024-01-30T06:07:18;3.50;99.90
11764;DHT22;5939;56.522;14.950;2024-01-30T06:09:44;3.50;99.90
11764;DHT22;5939;56.522;14.950;2024-01-30T06:12:11;3.50;99.90
11764;DHT22;5939;56.522;14.950;2024-01-30T06:14:37;3.50;99.90
11764;DHT22;5939;56.522;14.950;2024-01-30T06:17:03;3.50;99.90
11764;DHT22;5939;56.522;14.950;2024-01-30T06:19:29;3.50;99.90
11764;DHT22;5939;56.522;14.950;2024-01-30T06:21:54;3.50;99.90
11764;DHT22;5939;56.522;14.950;2024-01-30T06:24:20;3.50;99.90
11764;DHT22;5939;56.522;14.950;2024-01-30T06:26:46;3.50;99.90
11764;DHT22;5939;56.522;14.950;2024-01-30T06:29:11;3.50;99.90
11764;DHT22;5939;56.522;14.950;2024-01-30T06:31:40;3.60;99.90
11764;DHT22;5939;56.522;14.950;2024-01-30T06:34:07;3.50;99.90
11764;DHT22;5939;56.522;14.950;2024-01-30T06:36:33;3.50;99.90
11764;DHT22;5939;56.522;14.950;2024-01-30T06:38:59;3.50;99.90
11764;DHT22;5939;56.522;14.950;2024-01-30T06:41:25;3.50;99.90
11764;DHT22;5939;56.522;14.950;2024-01-30T06:43:51;3.50;99.90
11764;DHT22;5939;56.522;14.950;2024-01-30T06:46:16;3.50;99.90
11764;DHT22;5939;56.522;14.950;2024-01-30T06:48:42;3.50;99.90
11764;DHT22;5939;56.522;14.950;2024-01-30T06:51:10;3.50;99.90
11764;DHT22;5939;56.522;14.950;2024-01-30T06:53:36;3.50;99.90
11764;DHT22;5939;56.522;14.950;2024-01-30T06:56:02;3.50;99.90
11764;DHT22;5939;56.522;14.950;2024-01-30T06:58:27;3.50;99.90
11764;DHT22;5939;56.522;14.950;2024-01-30T07:00:54;3.50;99.90
11764;DHT22;5939;56.522;14.950;2024-01-30T07:03:20;3.50;99.90
11764;DHT22;5939;56.522;14.950;2024-01-30T07:05:45;3.50;99.90
11764;DHT22;5939;56.522;14.950;2024-01-30T07:08:11;3.50;99.90
11764;DHT22;5939;56.522;14.950;2024-01-30T07:10:36;3.50;99.90
11764;DHT22;5939;56.522;14.950;2024-01-30T07:13:02;3.50;99.90
11764;DHT22;5939;56.522;14.950;2024-01-30T07:15:29;3.50;99.90
11764;DHT22;5939;56.522;14.950;2024-01-30T07:17:55;3.50;99.90
11764;DHT22;5939;56.522;14.950;2024-01-30T07:20:20;3.60;99.90
11764;DHT22;5939;56.522;14.950;2024-01-30T07:22:46;3.50;99.90
11764;DHT22;5939;56.522;14.950;2024-01-30T07:25:13;3.50;99.90
11764;DHT22;5939;56.522;14.950;2024-01-30T07:27:38;3.50;99.90
11764;DHT22;5939;56.522;14.950;2024-01-30T07:30:04;3.50;99.90
11764;DHT22;5939;56.522;14.950;2024-01-30T07:32:30;3.50;99.90
11764;DHT22;5939;56.522;14.950;2024-01-30T07:34:57;3.50;99.90
11764;DHT22;5939;56.522;14.950;2024-01-30T07:37:23;3.50;99.90
11764;DHT22;5939;56.522;14.950;2024-01-30T07:39:48;3.50;99.90
11764;DHT22;5939;56.522;14.950;2024-01-30T07:42:14;3.50;99.90
11764;DHT22;5939;56.522;14.950;2024-01-30T07:44:40;3.50;99.90
11764;DHT22;5939;56.522;14.950;2024-01-30T07:47:05;3.50;99.90
11764;DHT22;5939;56.522;14.950;2024-01-30T07:49:32;3.50;99.90
11764;DHT22;5939;56.522;14.950;2024-01-30T07:51:57;3.50;99.90
11764;DHT22;5939;56.522;14.950;2024-01-30T07:54:23;3.60;99.90
11764;DHT22;5939;56.522;14.950;2024-01-30T07:56:49;3.60;99.90
11764;DHT22;5939;56.522;14.950;2024-01-30T07:59:15;3.50;99.90
11764;DHT22;5939;56.522;14.950;2024-01-30T08:01:41;3.50;99.90
11764;DHT22;5939;56.522;14.950;2024-01-30T08:04:06;3.60;99.90
11764;DHT22;5939;56.522;14.950;2024-01-30T08:06:32;3.60;99.90
11764;DHT22;5939;56.522;14.950;2024-01-30T08:08:58;3.50;99.90
11764;DHT22;5939;56.522;14.950;2024-01-30T08:11:24;3.60;99.90
11764;DHT22;5939;56.522;14.950;2024-01-30T08:13:55;3.60;99.90
11764;DHT22;5939;56.522;14.950;2024-01-30T08:16:20;3.60;99.90
11764;DHT22;5939;56.522;14.950;2024-01-30T08:18:46;3.60;99.90
11764;DHT22;5939;56.522;14.950;2024-01-30T08:21:12;3.60;99.90
11764;DHT22;5939;56.522;14.950;2024-01-30T08:23:39;3.60;99.90
11764;DHT22;5939;56.522;14.950;2024-01-30T08:26:05;3.60;99.90
11764;DHT22;5939;56.522;14.950;2024-01-30T08:28:31;3.60;99.90
11764;DHT22;5939;56.522;14.950;2024-01-30T08:30:56;3.60;99.90
11764;DHT22;5939;56.522;14.950;2024-01-30T08:33:22;3.60;99.90
11764;DHT22;5939;56.522;14.950;2024-01-30T08:35:48;3.60;99.90
11764;DHT22;5939;56.522;14.950;2024-01-30T08:38:14;3.60;99.90
11764;DHT22;5939;56.522;14.950;2024-01-30T08:40:39;3.60;99.90
11764;DHT22;5939;56.522;14.950;2024-01-30T08:43:05;3.60;99.90
11764;DHT22;5939;56.522;14.950;2024-01-30T08:45:31;3.60;99.90
11764;DHT22;5939;56.522;14.950;2024-01-30T08:47:56;3.60;99.90
11764;DHT22;5939;56.522;14.950;2024-01-30T08:50:22;3.60;99.90
11764;DHT22;5939;56.522;14.950;2024-01-30T08:52:48;3.60;99.90
11764;DHT22;5939;56.522;14.950;2024-01-30T08:55:13;3.60;99.90
11764;DHT22;5939;56.522;14.950;2024-01-30T08:57:39;3.60;99.90
11764;DHT22;5939;56.522;14.950;2024-01-30T09:00:05;3.60;99.90
11764;DHT22;5939;56.522;14.950;2024-01-30T09:02:32;3.60;99.90
11764;DHT22;5939;56.522;14.950;2024-01-30T09:04:58;3.60;99.90
11764;DHT22;5939;56.522;14.950;2024-01-30T09:07:24;3.60;99.90
11764;DHT22;5939;56.522;14.950;2024-01-30T09:09:49;3.60;99.90
11764;DHT22;5939;56.522;14.950;2024-01-30T09:12:15;3.70;99.90
11764;DHT22;5939;56.522;14.950;2024-01-30T09:14:41;3.70;99.90
11764;DHT22;5939;56.522;14.950;2024-01-30T09:17:07;3.60;99.90
11764;DHT22;5939;56.522;14.950;2024-01-30T09:19:33;3.60;99.90
11764;DHT22;5939;56.522;14.950;2024-01-30T09:21:59;3.60;99.90
11764;DHT22;5939;56.522;14.950;2024-01-30T09:24:26;3.70;99.90
11764;DHT22;5939;56.522;14.950;2024-01-30T09:26:52;3.60;99.90
11764;DHT22;5939;56.522;14.950;2024-01-30T09:29:18;3.70;99.90
11764;DHT22;5939;56.522;14.950;2024-01-30T09:31:47;3.70;99.90
11764;DHT22;5939;56.522;14.950;2024-01-30T09:34:13;3.70;99.90
11764;DHT22;5939;56.522;14.950;2024-01-30T09:36:39;3.70;99.90
11764;DHT22;5939;56.522;14.950;2024-01-30T09:39:05;3.70;99.90
11764;DHT22;5939;56.522;14.950;2024-01-30T09:41:55;3.70;99.90
11764;DHT22;5939;56.522;14.950;2024-01-30T09:44:26;3.70;99.90
11764;DHT22;5939;56.522;14.950;2024-01-30T09:46:54;3.70;99.90
11764;DHT22;5939;56.522;14.950;2024-01-30T09:49:20;3.70;99.90
11764;DHT22;5939;56.522;14.950;2024-01-30T09:51:48;3.70;99.90
11764;DHT22;5939;56.522;14.950;2024-01-30T09:54:14;3.70;99.90
11764;DHT22;5939;56.522;14.950;2024-01-30T09:56:41;3.80;99.90
11764;DHT22;5939;56.522;14.950;2024-01-30T09:59:06;3.80;99.90
11764;DHT22;5939;56.522;14.950;2024-01-30T10:01:34;3.80;99.90
11764;DHT22;5939;56.522;14.950;2024-01-30T10:04:00;3.80;99.90
11764;DHT22;5939;56.522;14.950;2024-01-30T10:06:26;3.80;99.90
11764;DHT22;5939;56.522;14.950;2024-01-30T10:08:53;3.80;99.90
11764;DHT22;5939;56.522;14.950;2024-01-30T10:11:18;3.80;99.90
11764;DHT22;5939;56.522;14.950;2024-01-30T10:13:44;3.80;99.90
11764;DHT22;5939;56.522;14.950;2024-01-30T10:16:09;3.80;99.90
11764;DHT22;5939;56.522;14.950;2024-01-30T10:18:35;3.80;99.90
11764;DHT22;5939;56.522;14.950;2024-01-30T10:21:01;3.80;99.90
11764;DHT22;5939;56.522;14.950;2024-01-30T10:23:26;3.80;99.90
11764;DHT22;5939;56.522;14.950;2024-01-30T10:25:52;3.80;99.90
11764;DHT22;5939;56.522;14.950;2024-01-30T10:28:18;3.80;99.90
11764;DHT22;5939;56.522;14.950;2024-01-30T10:30:43;3.80;99.90
11764;DHT22;5939;56.522;14.950;2024-01-30T10:33:09;3.90;99.90
11764;DHT22;5939;56.522;14.950;2024-01-30T10:35:35;3.90;99.90
11764;DHT22;5939;56.522;14.950;2024-01-30T10:38:00;3.90;99.90
11764;DHT22;5939;56.522;14.950;2024-01-30T10:40:28;3.90;99.90
11764;DHT22;5939;56.522;14.950;2024-01-30T10:42:55;3.90;99.90
11764;DHT22;5939;56.522;14.950;2024-01-30T10:45:22;3.90;99.90
11764;DHT22;5939;56.522;14.950;2024-01-30T10:47:54;3.90;99.90
11764;DHT22;5939;56.522;14.950;2024-01-30T10:50:24;3.90;99.90
11764;DHT22;5939;56.522;14.950;2024-01-30T10:52:50;3.90;99.90
11764;DHT22;5939;56.522;14.950;2024-01-30T10:55:18;4.00;99.90
11764;DHT22;5939;56.522;14.950;2024-01-30T10:57:44;4.00;99.90
11764;DHT22;5939;56.522;14.950;2024-01-30T11:00:12;4.00;99.90
11764;DHT22;5939;56.522;14.950;2024-01-30T11:02:43;4.00;99.90
11764;DHT22;5939;56.522;14.950;2024-01-30T11:05:10;4.00;99.90
11764;DHT22;5939;56.522;14.950;2024-01-30T11:07:36;4.00;99.90
11764;DHT22;5939;56.522;14.950;2024-01-30T11:10:04;4.00;99.90
11764;DHT22;5939;56.522;14.950;2024-01-30T11:12:37;4.00;99.90
11764;DHT22;5939;56.522;14.950;2024-01-30T11:15:06;4.10;99.90
11764;DHT22;5939;56.522;14.950;2024-01-30T11:17:51;4.10;99.90
11764;DHT22;5939;56.522;14.950;2024-01-30T11:22:47;4.10;99.90
11764;DHT22;5939;56.522;14.950;2024-01-30T11:25:17;4.10;99.90
11764;DHT22;5939;56.522;14.950;2024-01-30T11:27:45;4.10;99.90
11764;DHT22;5939;56.522;14.950;2024-01-30T11:30:21;4.10;99.90
11764;DHT22;5939;56.522;14.950;2024-01-30T11:33:07;4.20;99.90
11764;DHT22;5939;56.522;14.950;2024-01-30T11:35:35;4.20;99.90
11764;DHT22;5939;56.522;14.950;2024-01-30T11:38:02;4.20;99.90
11764;DHT22;5939;56.522;14.950;2024-01-30T11:40:29;4.20;99.90
11764;DHT22;5939;56.522;14.950;2024-01-30T11:42:56;4.20;99.90
11764;DHT22;5939;56.522;14.950;2024-01-30T11:45:22;4.20;99.90
11764;DHT22;5939;56.522;14.950;2024-01-30T11:47:48;4.20;99.90
11764;DHT22;5939;56.522;14.950;2024-01-30T11:50:14;4.30;99.90
11764;DHT22;5939;56.522;14.950;2024-01-30T11:52:40;4.30;99.90
11764;DHT22;5939;56.522;14.950;2024-01-30T11:55:07;4.30;99.90
11764;DHT22;5939;56.522;14.950;2024-01-30T11:57:33;4.30;99.90
11764;DHT22;5939;56.522;14.950;2024-01-30T12:00:01;4.30;99.90
11764;DHT22;5939;56.522;14.950;2024-01-30T12:02:27;4.30;99.90
11764;DHT22;5939;56.522;14.950;2024-01-30T12:04:52;4.40;99.90
11764;DHT22;5939;56.522;14.950;2024-01-30T12:07:18;4.40;99.90
11764;DHT22;5939;56.522;14.950;2024-01-30T12:09:52;4.50;99.90
11764;DHT22;5939;56.522;14.950;2024-01-30T12:12:19;4.40;99.90
11764;DHT22;5939;56.522;14.950;2024-01-30T12:14:45;4.40;99.90
11764;DHT22;5939;56.522;14.950;2024-01-30T12:17:10;4.40;99.90
11764;DHT22;5939;56.522;14.950;2024-01-30T12:19:36;4.40;99.90
11764;DHT22;5939;56.522;14.950;2024-01-30T12:22:02;4.40;99.90
11764;DHT22;5939;56.522;14.950;2024-01-30T12:24:28;4.40;99.90
11764;DHT22;5939;56.522;14.950;2024-01-30T12:26:58;4.50;99.90
11764;DHT22;5939;56.522;14.950;2024-01-30T12:29:24;4.40;99.90
11764;DHT22;5939;56.522;14.950;2024-01-30T12:31:53;4.50;99.90
11764;DHT22;5939;56.522;14.950;2024-01-30T12:34:19;4.50;99.90
11764;DHT22;5939;56.522;14.950;2024-01-30T12:36:47;4.50;99.90
11764;DHT22;5939;56.522;14.950;2024-01-30T12:39:14;4.50;99.90
11764;DHT22;5939;56.522;14.950;2024-01-30T12:41:40;4.50;99.90
11764;DHT22;5939;56.522;14.950;2024-01-30T12:44:06;4.50;99.90
11764;DHT22;5939;56.522;14.950;2024-01-30T12:46:34;4.50;99.90
11764;DHT22;5939;56.522;14.950;2024-01-30T12:49:00;4.60;99.90
11764;DHT22;5939;56.522;14.950;2024-01-30T12:51:25;4.60;99.90
11764;DHT22;5939;56.522;14.950;2024-01-30T12:53:51;4.60;99.90
11764;DHT22;5939;56.522;14.950;2024-01-30T12:56:17;4.60;99.90
11764;DHT22;5939;56.522;14.950;2024-01-30T12:58:42;4.60;99.90
11764;DHT22;5939;56.522;14.950;2024-01-30T13:01:09;4.60;99.90
11764;DHT22;5939;56.522;14.950;2024-01-30T13:03:35;4.60;99.90
11764;DHT22;5939;56.522;14.950;2024-01-30T13:06:00;4.70;99.90
11764;DHT22;5939;56.522;14.950;2024-01-30T13:08:26;4.70;99.90
11764;DHT22;5939;56.522;14.950;2024-01-30T13:10:51;4.70;99.90
11764;DHT22;5939;56.522;14.950;2024-01-30T13:13:18;4.70;99.90
11764;DHT22;5939;56.522;14.950;2024-01-30T13:15:43;4.70;99.90
11764;DHT22;5939;56.522;14.950;2024-01-30T13:18:10;4.70;99.90
11764;DHT22;5939;56.522;14.950;2024-01-30T13:20:35;4.70;99.90
11764;DHT22;5939;56.522;14.950;2024-01-30T13:23:01;4.70;99.90
11764;DHT22;5939;56.522;14.950;2024-01-30T13:25:27;4.70;99.90
11764;DHT22;5939;56.522;14.950;2024-01-30T13:27:52;4.80;99.90
11764;DHT22;5939;56.522;14.950;2024-01-30T13:30:18;4.80;99.90
11764;DHT22;5939;56.522;14.950;2024-01-30T13:32:44;4.80;99.90
11764;DHT22;5939;56.522;14.950;2024-01-30T13:35:10;4.80;99.90
11764;DHT22;5939;56.522;14.950;2024-01-30T13:37:36;4.80;99.90
11764;DHT22;5939;56.522;14.950;2024-01-30T13:40:06;4.80;99.90
11764;DHT22;5939;56.522;14.950;2024-01-30T13:42:32;4.80;99.90
11764;DHT22;5939;56.522;14.950;2024-01-30T13:44:58;4.80;99.90
11764;DHT22;5939;56.522;14.950;2024-01-30T13:47:24;4.80;99.90
11764;DHT22;5939;56.522;14.950;2024-01-30T13:49:50;4.90;99.90
11764;DHT22;5939;56.522;14.950;2024-01-30T13:52:18;4.90;99.90
11764;DHT22;5939;56.522;14.950;2024-01-30T13:54:43;4.90;99.90
11764;DHT22;5939;56.522;14.950;2024-01-30T13:57:09;4.90;99.90
11764;DHT22;5939;56.522;14.950;2024-01-30T13:59:35;4.90;99.90
11764;DHT22;5939;56.522;14.950;2024-01-30T14:02:00;4.90;99.90
11764;DHT22;5939;56.522;14.950;2024-01-30T14:04:26;4.90;99.90
11764;DHT22;5939;56.522;14.950;2024-01-30T14:06:52;4.90;99.90
11764;DHT22;5939;56.522;14.950;2024-01-30T14:09:17;4.90;99.90
11764;DHT22;5939;56.522;14.950;2024-01-30T14:11:43;4.90;99.90
11764;DHT22;5939;56.522;14.950;2024-01-30T14:14:09;4.90;99.90
11764;DHT22;5939;56.522;14.950;2024-01-30T14:16:35;4.90;99.90
11764;DHT22;5939;56.522;14.950;2024-01-30T14:19:01;4.90;99.90
11764;DHT22;5939;56.522;14.950;2024-01-30T14:21:26;5.00;99.90
11764;DHT22;5939;56.522;14.950;2024-01-30T14:23:52;5.00;99.90
11764;DHT22;5939;56.522;14.950;2024-01-30T14:26:17;5.00;99.90
11764;DHT22;5939;56.522;14.950;2024-01-30T14:28:43;5.00;99.90
11764;DHT22;5939;56.522;14.950;2024-01-30T14:31:09;4.90;99.90
11764;DHT22;5939;56.522;14.950;2024-01-30T14:33:34;5.00;99.90
11764;DHT22;5939;56.522;14.950;2024-01-30T14:36:00;5.00;99.90
11764;DHT22;5939;56.522;14.950;2024-01-30T14:38:26;5.00;99.90
11764;DHT22;5939;56.522;14.950;2024-01-30T14:40:53;5.00;99.90
11764;DHT22;5939;56.522;14.950;2024-01-30T14:43:19;5.00;99.90
11764;DHT22;5939;56.522;14.950;2024-01-30T14:45:45;5.00;99.90
11764;DHT22;5939;56.522;14.950;2024-01-30T14:48:13;5.00;99.90
11764;DHT22;5939;56.522;14.950;2024-01-30T14:50:38;5.00;99.90
11764;DHT22;5939;56.522;14.950;2024-01-30T14:53:04;5.00;99.90
11764;DHT22;5939;56.522;14.950;2024-01-30T14:55:29;5.00;99.90
11764;DHT22;5939;56.522;14.950;2024-01-30T14:57:55;5.00;99.90
11764;DHT22;5939;56.522;14.950;2024-01-30T15:00:21;5.00;99.90
11764;DHT22;5939;56.522;14.950;2024-01-30T15:02:47;5.00;99.90
11764;DHT22;5939;56.522;14.950;2024-01-30T15:05:13;5.00;99.90
11764;DHT22;5939;56.522;14.950;2024-01-30T15:07:39;5.00;99.90
11764;DHT22;5939;56.522;14.950;2024-01-30T15:10:04;5.00;99.90
11764;DHT22;5939;56.522;14.950;2024-01-30T15:12:30;5.00;99.90
11764;DHT22;5939;56.522;14.950;2024-01-30T15:14:56;5.00;99.90
11764;DHT22;5939;56.522;14.950;2024-01-30T15:17:21;5.00;99.90
11764;DHT22;5939;56.522;14.950;2024-01-30T15:19:47;5.00;99.90
11764;DHT22;5939;56.522;14.950;2024-01-30T15:22:13;5.00;99.90
11764;DHT22;5939;56.522;14.950;2024-01-30T15:24:39;5.00;99.90
11764;DHT22;5939;56.522;14.950;2024-01-30T15:27:05;5.00;99.90
11764;DHT22;5939;56.522;14.950;2024-01-30T15:29:31;5.00;99.90
11764;DHT22;5939;56.522;14.950;2024-01-30T15:31:57;5.00;99.90
11764;DHT22;5939;56.522;14.950;2024-01-30T15:34:22;5.00;99.90
11764;DHT22;5939;56.522;14.950;2024-01-30T15:36:48;5.00;99.90
11764;DHT22;5939;56.522;14.950;2024-01-30T15:39:14;5.00;99.90
11764;DHT22;5939;56.522;14.950;2024-01-30T15:41:41;5.00;99.90